sensor_id;sensor_type;location;lat;lon;timestamp;P1;durP1;ratioP1;P2;durP2;ratioP2
56183;SDS011;42086;53.170;6.980;2022-09-09T00:01:36;23.15;;;13.52;;
56183;SDS011;42086;53.170;6.980;2022-09-09T00:04:05;24.63;;;13.40;;
56183;SDS011;42086;53.170;6.980;2022-09-09T00:07:24;21.92;;;12.98;;
56183;SDS011;42086;53.170;6.980;2022-09-09T00:10:20;19.80;;;13.43;;
56183;SDS011;42086;53.170;6.980;2022-09-09T00:12:34;22.67;;;13.57;;
56183;SDS011;42086;53.170;6.980;2022-09-09T00:15:11;19.90;;;12.87;;
56183;SDS011;42086;53.170;6.980;2022-09-09T00:17:58;20.73;;;12.48;;
56183;SDS011;42086;53.170;6.980;2022-09-09T00:20:59;23.60;;;13.73;;
56183;SDS011;42086;53.170;6.980;2022-09-09T00:23:53;20.27;;;11.85;;
56183;SDS011;42086;53.170;6.980;2022-09-09T00:31:38;21.25;;;12.70;;
56183;SDS011;42086;53.170;6.980;2022-09-09T00:34:12;18.70;;;11.73;;
56183;SDS011;42086;53.170;6.980;2022-09-09T00:36:42;26.10;;;13.10;;
56183;SDS011;42086;53.170;6.980;2022-09-09T00:39:23;28.33;;;12.68;;
56183;SDS011;42086;53.170;6.980;2022-09-09T00:42:08;20.48;;;12.40;;
56183;SDS011;42086;53.170;6.980;2022-09-09T00:44:56;21.15;;;12.38;;
56183;SDS011;42086;53.170;6.980;2022-09-09T00:47:49;19.70;;;11.77;;
56183;SDS011;42086;53.170;6.980;2022-09-09T00:52:46;20.42;;;13.02;;
56183;SDS011;42086;53.170;6.980;2022-09-09T00:58:10;23.25;;;13.23;;
56183;SDS011;42086;53.170;6.980;2022-09-09T01:00:52;23.63;;;13.40;;
56183;SDS011;42086;53.170;6.980;2022-09-09T01:03:31;22.42;;;12.73;;
56183;SDS011;42086;53.170;6.980;2022-09-09T01:06:22;26.08;;;13.85;;
56183;SDS011;42086;53.170;6.980;2022-09-09T01:12:07;21.45;;;13.13;;
56183;SDS011;42086;53.170;6.980;2022-09-09T01:20:15;25.70;;;14.27;;
56183;SDS011;42086;53.170;6.980;2022-09-09T01:28:10;23.35;;;13.50;;
56183;SDS011;42086;53.170;6.980;2022-09-09T01:30:41;25.65;;;13.50;;
56183;SDS011;42086;53.170;6.980;2022-09-09T01:33:09;19.55;;;12.75;;
56183;SDS011;42086;53.170;6.980;2022-09-09T01:35:42;24.70;;;13.18;;
56183;SDS011;42086;53.170;6.980;2022-09-09T01:38:20;23.00;;;13.27;;
56183;SDS011;42086;53.170;6.980;2022-09-09T01:40:47;23.10;;;13.35;;
56183;SDS011;42086;53.170;6.980;2022-09-09T01:43:14;27.25;;;13.90;;
56183;SDS011;42086;53.170;6.980;2022-09-09T01:45:40;24.85;;;13.60;;
56183;SDS011;42086;53.170;6.980;2022-09-09T01:48:08;20.73;;;13.80;;
56183;SDS011;42086;53.170;6.980;2022-09-09T01:50:34;21.38;;;13.45;;
56183;SDS011;42086;53.170;6.980;2022-09-09T01:53:00;23.73;;;13.80;;
56183;SDS011;42086;53.170;6.980;2022-09-09T01:55:29;24.58;;;13.85;;
56183;SDS011;42086;53.170;6.980;2022-09-09T01:58:04;22.73;;;14.48;;
56183;SDS011;42086;53.170;6.980;2022-09-09T02:00:53;24.05;;;13.98;;
56183;SDS011;42086;53.170;6.980;2022-09-09T02:03:31;27.45;;;14.00;;
56183;SDS011;42086;53.170;6.980;2022-09-09T02:06:08;21.35;;;13.52;;
56183;SDS011;42086;53.170;6.980;2022-09-09T02:08:47;27.00;;;13.93;;
56183;SDS011;42086;53.170;6.980;2022-09-09T02:11:16;24.77;;;14.32;;
56183;SDS011;42086;53.170;6.980;2022-09-09T02:13:45;22.42;;;13.38;;
56183;SDS011;42086;53.170;6.980;2022-09-09T02:16:18;23.02;;;12.27;;
56183;SDS011;42086;53.170;6.980;2022-09-09T02:18:55;22.85;;;13.10;;
56183;SDS011;42086;53.170;6.980;2022-09-09T02:21:21;22.08;;;12.45;;
56183;SDS011;42086;53.170;6.980;2022-09-09T02:23:49;19.70;;;11.77;;
56183;SDS011;42086;53.170;6.980;2022-09-09T02:26:17;24.15;;;12.68;;
56183;SDS011;42086;53.170;6.980;2022-09-09T02:28:50;19.63;;;12.20;;
56183;SDS011;42086;53.170;6.980;2022-09-09T02:31:17;22.65;;;12.38;;
56183;SDS011;42086;53.170;6.980;2022-09-09T02:33:48;23.40;;;12.10;;
56183;SDS011;42086;53.170;6.980;2022-09-09T02:36:19;19.73;;;12.50;;
56183;SDS011;42086;53.170;6.980;2022-09-09T02:38:48;19.33;;;11.45;;
56183;SDS011;42086;53.170;6.980;2022-09-09T02:41:19;20.80;;;12.50;;
56183;SDS011;42086;53.170;6.980;2022-09-09T02:43:47;22.98;;;12.43;;
56183;SDS011;42086;53.170;6.980;2022-09-09T02:49:05;18.60;;;12.02;;
56183;SDS011;42086;53.170;6.980;2022-09-09T02:57:01;19.08;;;11.30;;
56183;SDS011;42086;53.170;6.980;2022-09-09T02:59:37;18.20;;;11.38;;
56183;SDS011;42086;53.170;6.980;2022-09-09T03:02:04;18.60;;;10.25;;
56183;SDS011;42086;53.170;6.980;2022-09-09T03:04:30;19.38;;;10.90;;
56183;SDS011;42086;53.170;6.980;2022-09-09T03:06:57;17.42;;;10.77;;
56183;SDS011;42086;53.170;6.980;2022-09-09T03:09:23;21.63;;;11.10;;
56183;SDS011;42086;53.170;6.980;2022-09-09T03:11:51;23.65;;;11.15;;
56183;SDS011;42086;53.170;6.980;2022-09-09T03:14:17;17.00;;;10.20;;
56183;SDS011;42086;53.170;6.980;2022-09-09T03:16:46;17.83;;;11.05;;
56183;SDS011;42086;53.170;6.980;2022-09-09T03:19:13;18.48;;;10.27;;
56183;SDS011;42086;53.170;6.980;2022-09-09T03:21:39;23.10;;;11.10;;
56183;SDS011;42086;53.170;6.980;2022-09-09T03:24:05;18.13;;;9.77;;
56183;SDS011;42086;53.170;6.980;2022-09-09T03:26:31;19.88;;;10.60;;
56183;SDS011;42086;53.170;6.980;2022-09-09T03:28:58;21.50;;;11.23;;
56183;SDS011;42086;53.170;6.980;2022-09-09T03:31:25;19.35;;;11.05;;
56183;SDS011;42086;53.170;6.980;2022-09-09T03:33:55;22.17;;;10.18;;
56183;SDS011;42086;53.170;6.980;2022-09-09T03:36:25;20.65;;;10.70;;
56183;SDS011;42086;53.170;6.980;2022-09-09T03:38:52;16.77;;;9.32;;
56183;SDS011;42086;53.170;6.980;2022-09-09T03:41:19;20.50;;;9.85;;
56183;SDS011;42086;53.170;6.980;2022-09-09T03:43:52;19.85;;;9.82;;
56183;SDS011;42086;53.170;6.980;2022-09-09T03:46:19;17.42;;;9.32;;
56183;SDS011;42086;53.170;6.980;2022-09-09T03:48:46;20.80;;;9.43;;
56183;SDS011;42086;53.170;6.980;2022-09-09T03:51:12;17.17;;;9.20;;
56183;SDS011;42086;53.170;6.980;2022-09-09T03:53:38;19.20;;;9.35;;
56183;SDS011;42086;53.170;6.980;2022-09-09T03:56:05;18.65;;;8.93;;
56183;SDS011;42086;53.170;6.980;2022-09-09T03:58:32;19.00;;;9.25;;
56183;SDS011;42086;53.170;6.980;2022-09-09T04:01:06;20.02;;;9.02;;
56183;SDS011;42086;53.170;6.980;2022-09-09T04:03:33;16.70;;;9.20;;
56183;SDS011;42086;53.170;6.980;2022-09-09T04:06:00;17.17;;;9.25;;
56183;SDS011;42086;53.170;6.980;2022-09-09T04:08:28;15.43;;;8.27;;
56183;SDS011;42086;53.170;6.980;2022-09-09T04:10:57;12.93;;;7.70;;
56183;SDS011;42086;53.170;6.980;2022-09-09T04:13:23;15.18;;;7.28;;
56183;SDS011;42086;53.170;6.980;2022-09-09T04:15:50;12.27;;;6.93;;
56183;SDS011;42086;53.170;6.980;2022-09-09T04:18:18;14.20;;;7.35;;
56183;SDS011;42086;53.170;6.980;2022-09-09T04:20:48;12.80;;;7.15;;
56183;SDS011;42086;53.170;6.980;2022-09-09T04:23:15;15.85;;;6.88;;
56183;SDS011;42086;53.170;6.980;2022-09-09T04:25:45;11.55;;;6.53;;
56183;SDS011;42086;53.170;6.980;2022-09-09T04:28:12;15.90;;;6.80;;
56183;SDS011;42086;53.170;6.980;2022-09-09T04:30:39;11.90;;;6.90;;
56183;SDS011;42086;53.170;6.980;2022-09-09T04:33:06;16.02;;;7.07;;
56183;SDS011;42086;53.170;6.980;2022-09-09T04:35:32;13.25;;;6.97;;
56183;SDS011;42086;53.170;6.980;2022-09-09T04:37:59;16.40;;;6.97;;
56183;SDS011;42086;53.170;6.980;2022-09-09T04:40:24;13.48;;;7.28;;
56183;SDS011;42086;53.170;6.980;2022-09-09T04:42:50;13.95;;;6.78;;
56183;SDS011;42086;53.170;6.980;2022-09-09T04:45:16;13.30;;;7.75;;
56183;SDS011;42086;53.170;6.980;2022-09-09T04:47:43;12.27;;;6.93;;
56183;SDS011;42086;53.170;6.980;2022-09-09T04:50:09;11.50;;;6.78;;
56183;SDS011;42086;53.170;6.980;2022-09-09T04:52:35;14.00;;;8.00;;
56183;SDS011;42086;53.170;6.980;2022-09-09T04:55:01;13.70;;;7.18;;
56183;SDS011;42086;53.170;6.980;2022-09-09T04:57:27;14.30;;;7.30;;
56183;SDS011;42086;53.170;6.980;2022-09-09T04:59:54;18.27;;;8.38;;
56183;SDS011;42086;53.170;6.980;2022-09-09T05:02:20;13.50;;;7.75;;
56183;SDS011;42086;53.170;6.980;2022-09-09T05:04:45;20.33;;;8.82;;
56183;SDS011;42086;53.170;6.980;2022-09-09T05:07:11;15.40;;;9.70;;
56183;SDS011;42086;53.170;6.980;2022-09-09T05:09:39;14.77;;;9.60;;
56183;SDS011;42086;53.170;6.980;2022-09-09T05:12:04;18.88;;;9.40;;
56183;SDS011;42086;53.170;6.980;2022-09-09T05:14:30;17.85;;;9.82;;
56183;SDS011;42086;53.170;6.980;2022-09-09T05:16:56;17.63;;;10.20;;
56183;SDS011;42086;53.170;6.980;2022-09-09T05:19:23;16.52;;;9.98;;
56183;SDS011;42086;53.170;6.980;2022-09-09T05:21:49;17.75;;;9.32;;
56183;SDS011;42086;53.170;6.980;2022-09-09T05:24:15;13.90;;;7.95;;
56183;SDS011;42086;53.170;6.980;2022-09-09T05:26:41;12.45;;;8.00;;
56183;SDS011;42086;53.170;6.980;2022-09-09T05:29:08;13.73;;;8.10;;
56183;SDS011;42086;53.170;6.980;2022-09-09T05:31:34;15.35;;;8.55;;
56183;SDS011;42086;53.170;6.980;2022-09-09T05:34:00;15.23;;;8.35;;
56183;SDS011;42086;53.170;6.980;2022-09-09T05:36:26;14.50;;;7.63;;
56183;SDS011;42086;53.170;6.980;2022-09-09T05:38:52;15.52;;;8.40;;
56183;SDS011;42086;53.170;6.980;2022-09-09T05:41:19;14.50;;;7.60;;
56183;SDS011;42086;53.170;6.980;2022-09-09T05:43:45;12.18;;;7.38;;
56183;SDS011;42086;53.170;6.980;2022-09-09T05:46:18;12.60;;;7.18;;
56183;SDS011;42086;53.170;6.980;2022-09-09T05:48:46;14.00;;;7.63;;
56183;SDS011;42086;53.170;6.980;2022-09-09T05:51:20;15.98;;;7.93;;
56183;SDS011;42086;53.170;6.980;2022-09-09T05:53:50;14.18;;;7.90;;
56183;SDS011;42086;53.170;6.980;2022-09-09T05:56:21;16.88;;;7.45;;
56183;SDS011;42086;53.170;6.980;2022-09-09T05:58:50;13.85;;;7.63;;
56183;SDS011;42086;53.170;6.980;2022-09-09T06:01:26;12.32;;;7.05;;
56183;SDS011;42086;53.170;6.980;2022-09-09T06:03:54;12.82;;;7.18;;
56183;SDS011;42086;53.170;6.980;2022-09-09T06:06:21;13.38;;;7.45;;
56183;SDS011;42086;53.170;6.980;2022-09-09T06:08:52;14.55;;;7.13;;
56183;SDS011;42086;53.170;6.980;2022-09-09T06:11:26;12.38;;;7.63;;
56183;SDS011;42086;53.170;6.980;2022-09-09T06:13:56;12.60;;;7.03;;
56183;SDS011;42086;53.170;6.980;2022-09-09T06:16:23;13.13;;;7.35;;
56183;SDS011;42086;53.170;6.980;2022-09-09T06:18:51;14.68;;;8.20;;
56183;SDS011;42086;53.170;6.980;2022-09-09T06:21:23;11.32;;;7.15;;
56183;SDS011;42086;53.170;6.980;2022-09-09T06:23:53;12.52;;;7.57;;
56183;SDS011;42086;53.170;6.980;2022-09-09T06:26:23;13.57;;;7.70;;
56183;SDS011;42086;53.170;6.980;2022-09-09T06:28:51;12.52;;;7.55;;
56183;SDS011;42086;53.170;6.980;2022-09-09T06:31:19;15.07;;;7.85;;
56183;SDS011;42086;53.170;6.980;2022-09-09T06:33:48;14.20;;;8.02;;
56183;SDS011;42086;53.170;6.980;2022-09-09T06:36:15;14.57;;;8.40;;
56183;SDS011;42086;53.170;6.980;2022-09-09T06:38:46;15.15;;;7.95;;
56183;SDS011;42086;53.170;6.980;2022-09-09T06:41:13;14.23;;;8.57;;
56183;SDS011;42086;53.170;6.980;2022-09-09T06:43:40;12.88;;;8.18;;
56183;SDS011;42086;53.170;6.980;2022-09-09T06:46:28;16.50;;;8.52;;
56183;SDS011;42086;53.170;6.980;2022-09-09T06:48:55;16.05;;;8.63;;
56183;SDS011;42086;53.170;6.980;2022-09-09T06:51:23;12.75;;;7.82;;
56183;SDS011;42086;53.170;6.980;2022-09-09T06:53:51;15.73;;;8.43;;
56183;SDS011;42086;53.170;6.980;2022-09-09T06:56:20;10.75;;;7.68;;
56183;SDS011;42086;53.170;6.980;2022-09-09T06:58:48;17.00;;;9.20;;
56183;SDS011;42086;53.170;6.980;2022-09-09T07:01:16;13.88;;;8.60;;
56183;SDS011;42086;53.170;6.980;2022-09-09T07:03:48;11.68;;;7.78;;
56183;SDS011;42086;53.170;6.980;2022-09-09T07:06:20;12.55;;;7.95;;
56183;SDS011;42086;53.170;6.980;2022-09-09T07:08:53;11.68;;;7.75;;
56183;SDS011;42086;53.170;6.980;2022-09-09T07:11:21;10.48;;;7.18;;
56183;SDS011;42086;53.170;6.980;2022-09-09T07:13:50;10.77;;;7.97;;
56183;SDS011;42086;53.170;6.980;2022-09-09T07:16:17;14.63;;;9.05;;
56183;SDS011;42086;53.170;6.980;2022-09-09T07:18:45;12.88;;;7.97;;
56183;SDS011;42086;53.170;6.980;2022-09-09T07:21:13;12.18;;;8.55;;
56183;SDS011;42086;53.170;6.980;2022-09-09T07:23:40;11.23;;;6.97;;
56183;SDS011;42086;53.170;6.980;2022-09-09T07:26:10;8.73;;;6.32;;
56183;SDS011;42086;53.170;6.980;2022-09-09T07:28:38;11.75;;;7.00;;
56183;SDS011;42086;53.170;6.980;2022-09-09T07:31:06;7.97;;;5.72;;
56183;SDS011;42086;53.170;6.980;2022-09-09T07:33:33;10.57;;;6.63;;
56183;SDS011;42086;53.170;6.980;2022-09-09T07:36:07;10.00;;;7.00;;
56183;SDS011;42086;53.170;6.980;2022-09-09T07:38:39;12.75;;;7.30;;
56183;SDS011;42086;53.170;6.980;2022-09-09T07:41:07;13.03;;;7.47;;
56183;SDS011;42086;53.170;6.980;2022-09-09T07:43:43;11.95;;;6.72;;
56183;SDS011;42086;53.170;6.980;2022-09-09T07:46:10;10.68;;;6.80;;
56183;SDS011;42086;53.170;6.980;2022-09-09T07:48:38;11.35;;;6.53;;
56183;SDS011;42086;53.170;6.980;2022-09-09T07:51:10;12.52;;;7.10;;
56183;SDS011;42086;53.170;6.980;2022-09-09T07:53:42;11.93;;;6.95;;
56183;SDS011;42086;53.170;6.980;2022-09-09T07:56:09;10.70;;;6.68;;
56183;SDS011;42086;53.170;6.980;2022-09-09T07:58:38;13.85;;;7.63;;
56183;SDS011;42086;53.170;6.980;2022-09-09T08:01:12;8.32;;;6.60;;
56183;SDS011;42086;53.170;6.980;2022-09-09T08:03:43;11.82;;;6.50;;
56183;SDS011;42086;53.170;6.980;2022-09-09T08:06:12;11.98;;;6.13;;
56183;SDS011;42086;53.170;6.980;2022-09-09T08:08:38;11.05;;;5.85;;
56183;SDS011;42086;53.170;6.980;2022-09-09T08:13:37;11.20;;;5.80;;
56183;SDS011;42086;53.170;6.980;2022-09-09T08:16:08;9.07;;;6.25;;
56183;SDS011;42086;53.170;6.980;2022-09-09T08:18:39;8.50;;;5.72;;
56183;SDS011;42086;53.170;6.980;2022-09-09T08:21:09;7.43;;;5.32;;
56183;SDS011;42086;53.170;6.980;2022-09-09T08:23:40;7.88;;;5.25;;
56183;SDS011;42086;53.170;6.980;2022-09-09T08:28:47;9.13;;;5.97;;
56183;SDS011;42086;53.170;6.980;2022-09-09T08:33:48;8.75;;;5.85;;
56183;SDS011;42086;53.170;6.980;2022-09-09T08:36:16;9.93;;;5.30;;
56183;SDS011;42086;53.170;6.980;2022-09-09T08:38:46;7.55;;;5.57;;
56183;SDS011;42086;53.170;6.980;2022-09-09T08:52:57;9.82;;;5.45;;
56183;SDS011;42086;53.170;6.980;2022-09-09T08:58:17;7.35;;;5.40;;
56183;SDS011;42086;53.170;6.980;2022-09-09T09:06:49;8.98;;;5.72;;
56183;SDS011;42086;53.170;6.980;2022-09-09T09:09:26;7.60;;;5.75;;
56183;SDS011;42086;53.170;6.980;2022-09-09T09:12:10;7.93;;;5.65;;
56183;SDS011;42086;53.170;6.980;2022-09-09T09:14:46;10.85;;;5.13;;
56183;SDS011;42086;53.170;6.980;2022-09-09T09:19:44;7.20;;;5.15;;
56183;SDS011;42086;53.170;6.980;2022-09-09T09:22:19;7.07;;;4.90;;
56183;SDS011;42086;53.170;6.980;2022-09-09T09:27:40;10.27;;;5.28;;
56183;SDS011;42086;53.170;6.980;2022-09-09T09:30:14;6.50;;;5.20;;
56183;SDS011;42086;53.170;6.980;2022-09-09T09:32:56;9.10;;;5.05;;
56183;SDS011;42086;53.170;6.980;2022-09-09T09:35:48;8.20;;;5.35;;
56183;SDS011;42086;53.170;6.980;2022-09-09T09:40:57;8.18;;;5.18;;
56183;SDS011;42086;53.170;6.980;2022-09-09T09:43:26;8.80;;;5.45;;
56183;SDS011;42086;53.170;6.980;2022-09-09T09:45:54;10.85;;;5.50;;
56183;SDS011;42086;53.170;6.980;2022-09-09T09:48:23;10.43;;;5.43;;
56183;SDS011;42086;53.170;6.980;2022-09-09T09:50:51;12.15;;;5.75;;
56183;SDS011;42086;53.170;6.980;2022-09-09T09:53:29;8.05;;;5.07;;
56183;SDS011;42086;53.170;6.980;2022-09-09T09:56:03;11.82;;;6.15;;
56183;SDS011;42086;53.170;6.980;2022-09-09T09:58:33;13.88;;;8.73;;
56183;SDS011;42086;53.170;6.980;2022-09-09T10:01:28;9.98;;;6.03;;
56183;SDS011;42086;53.170;6.980;2022-09-09T10:06:41;12.35;;;7.50;;
56183;SDS011;42086;53.170;6.980;2022-09-09T10:14:40;8.77;;;3.72;;
56183;SDS011;42086;53.170;6.980;2022-09-09T10:23:15;9.93;;;3.90;;
56183;SDS011;42086;53.170;6.980;2022-09-09T10:26:07;6.70;;;3.42;;
56183;SDS011;42086;53.170;6.980;2022-09-09T10:34:54;11.35;;;4.45;;
56183;SDS011;42086;53.170;6.980;2022-09-09T10:42:40;6.05;;;3.10;;
56183;SDS011;42086;53.170;6.980;2022-09-09T10:45:18;10.25;;;3.50;;
56183;SDS011;42086;53.170;6.980;2022-09-09T10:53:39;9.10;;;3.17;;
56183;SDS011;42086;53.170;6.980;2022-09-09T10:56:22;8.27;;;3.00;;
56183;SDS011;42086;53.170;6.980;2022-09-09T10:58:54;6.25;;;2.40;;
56183;SDS011;42086;53.170;6.980;2022-09-09T11:01:47;7.15;;;2.58;;
56183;SDS011;42086;53.170;6.980;2022-09-09T11:04:19;8.52;;;2.60;;
56183;SDS011;42086;53.170;6.980;2022-09-09T11:06:57;7.03;;;2.30;;
56183;SDS011;42086;53.170;6.980;2022-09-09T11:09:31;6.88;;;2.90;;
56183;SDS011;42086;53.170;6.980;2022-09-09T11:12:03;6.85;;;2.55;;
56183;SDS011;42086;53.170;6.980;2022-09-09T11:14:37;6.85;;;2.60;;
56183;SDS011;42086;53.170;6.980;2022-09-09T11:17:15;5.97;;;2.05;;
56183;SDS011;42086;53.170;6.980;2022-09-09T11:19:45;5.50;;;1.95;;
56183;SDS011;42086;53.170;6.980;2022-09-09T11:22:22;7.60;;;2.30;;
56183;SDS011;42086;53.170;6.980;2022-09-09T11:24:55;6.82;;;2.08;;
56183;SDS011;42086;53.170;6.980;2022-09-09T11:41:50;8.77;;;2.00;;
56183;SDS011;42086;53.170;6.980;2022-09-09T11:44:23;6.75;;;2.03;;
56183;SDS011;42086;53.170;6.980;2022-09-09T11:46:55;6.35;;;2.13;;
56183;SDS011;42086;53.170;6.980;2022-09-09T11:49:28;8.50;;;1.98;;
56183;SDS011;42086;53.170;6.980;2022-09-09T11:54:52;7.85;;;2.20;;
56183;SDS011;42086;53.170;6.980;2022-09-09T11:59:57;6.57;;;2.28;;
56183;SDS011;42086;53.170;6.980;2022-09-09T12:02:26;8.13;;;2.40;;
56183;SDS011;42086;53.170;6.980;2022-09-09T12:05:08;4.85;;;1.77;;
56183;SDS011;42086;53.170;6.980;2022-09-09T12:07:40;8.98;;;2.55;;
56183;SDS011;42086;53.170;6.980;2022-09-09T12:10:27;5.07;;;2.15;;
56183;SDS011;42086;53.170;6.980;2022-09-09T12:13:21;5.00;;;2.03;;
56183;SDS011;42086;53.170;6.980;2022-09-09T12:18:24;4.95;;;2.03;;
56183;SDS011;42086;53.170;6.980;2022-09-09T12:21:00;7.00;;;2.40;;
56183;SDS011;42086;53.170;6.980;2022-09-09T12:40:24;8.38;;;1.77;;
56183;SDS011;42086;53.170;6.980;2022-09-09T12:42:55;5.63;;;2.08;;
56183;SDS011;42086;53.170;6.980;2022-09-09T12:45:24;5.00;;;2.00;;
56183;SDS011;42086;53.170;6.980;2022-09-09T12:47:53;6.50;;;2.00;;
56183;SDS011;42086;53.170;6.980;2022-09-09T12:50:26;5.50;;;1.73;;
56183;SDS011;42086;53.170;6.980;2022-09-09T12:52:55;4.25;;;1.70;;
56183;SDS011;42086;53.170;6.980;2022-09-09T12:55:24;8.50;;;1.90;;
56183;SDS011;42086;53.170;6.980;2022-09-09T12:57:55;4.68;;;1.88;;
56183;SDS011;42086;53.170;6.980;2022-09-09T13:00:23;5.25;;;1.70;;
56183;SDS011;42086;53.170;6.980;2022-09-09T13:03:00;2.83;;;1.40;;
56183;SDS011;42086;53.170;6.980;2022-09-09T13:05:34;4.57;;;1.38;;
56183;SDS011;42086;53.170;6.980;2022-09-09T13:08:02;4.55;;;1.50;;
56183;SDS011;42086;53.170;6.980;2022-09-09T13:10:31;4.10;;;1.60;;
56183;SDS011;42086;53.170;6.980;2022-09-09T13:13:03;1.65;;;0.85;;
56183;SDS011;42086;53.170;6.980;2022-09-09T13:15:38;4.35;;;1.55;;
56183;SDS011;42086;53.170;6.980;2022-09-09T13:18:05;3.75;;;1.25;;
56183;SDS011;42086;53.170;6.980;2022-09-09T13:20:37;4.40;;;1.38;;
56183;SDS011;42086;53.170;6.980;2022-09-09T13:23:03;4.30;;;1.33;;
56183;SDS011;42086;53.170;6.980;2022-09-09T13:25:29;4.18;;;1.45;;
56183;SDS011;42086;53.170;6.980;2022-09-09T13:27:56;4.82;;;1.15;;
56183;SDS011;42086;53.170;6.980;2022-09-09T13:30:36;3.05;;;1.08;;
56183;SDS011;42086;53.170;6.980;2022-09-09T13:35:35;4.07;;;1.20;;
56183;SDS011;42086;53.170;6.980;2022-09-09T13:38:13;4.38;;;1.13;;
56183;SDS011;42086;53.170;6.980;2022-09-09T13:40:40;3.40;;;1.20;;
56183;SDS011;42086;53.170;6.980;2022-09-09T13:43:20;4.72;;;1.02;;
56183;SDS011;42086;53.170;6.980;2022-09-09T13:45:58;4.30;;;1.45;;
56183;SDS011;42086;53.170;6.980;2022-09-09T13:48:26;4.20;;;1.02;;
56183;SDS011;42086;53.170;6.980;2022-09-09T13:50:56;3.67;;;1.40;;
56183;SDS011;42086;53.170;6.980;2022-09-09T13:53:26;4.55;;;1.30;;
56183;SDS011;42086;53.170;6.980;2022-09-09T13:55:53;3.50;;;1.15;;
56183;SDS011;42086;53.170;6.980;2022-09-09T13:58:19;6.10;;;1.40;;
56183;SDS011;42086;53.170;6.980;2022-09-09T14:00:46;4.43;;;1.13;;
56183;SDS011;42086;53.170;6.980;2022-09-09T14:03:12;6.45;;;1.38;;
56183;SDS011;42086;53.170;6.980;2022-09-09T14:05:39;5.65;;;1.35;;
56183;SDS011;42086;53.170;6.980;2022-09-09T14:08:05;3.92;;;1.00;;
56183;SDS011;42086;53.170;6.980;2022-09-09T14:10:32;3.40;;;1.10;;
56183;SDS011;42086;53.170;6.980;2022-09-09T14:13:01;3.92;;;1.05;;
56183;SDS011;42086;53.170;6.980;2022-09-09T14:15:27;1.60;;;0.80;;
56183;SDS011;42086;53.170;6.980;2022-09-09T14:17:54;2.45;;;0.60;;
56183;SDS011;42086;53.170;6.980;2022-09-09T14:20:20;1.42;;;0.70;;
56183;SDS011;42086;53.170;6.980;2022-09-09T14:22:46;3.25;;;0.85;;
56183;SDS011;42086;53.170;6.980;2022-09-09T14:25:12;4.20;;;1.00;;
56183;SDS011;42086;53.170;6.980;2022-09-09T14:27:38;7.50;;;1.30;;
56183;SDS011;42086;53.170;6.980;2022-09-09T14:30:05;3.92;;;1.30;;
56183;SDS011;42086;53.170;6.980;2022-09-09T14:32:32;4.55;;;1.50;;
56183;SDS011;42086;53.170;6.980;2022-09-09T14:34:58;6.57;;;1.90;;
56183;SDS011;42086;53.170;6.980;2022-09-09T14:37:24;6.13;;;1.38;;
56183;SDS011;42086;53.170;6.980;2022-09-09T14:39:50;7.38;;;1.52;;
56183;SDS011;42086;53.170;6.980;2022-09-09T14:42:16;10.82;;;1.52;;
56183;SDS011;42086;53.170;6.980;2022-09-09T14:44:43;4.78;;;1.38;;
56183;SDS011;42086;53.170;6.980;2022-09-09T14:47:09;4.93;;;1.58;;
56183;SDS011;42086;53.170;6.980;2022-09-09T14:49:35;5.07;;;1.55;;
56183;SDS011;42086;53.170;6.980;2022-09-09T14:52:02;3.90;;;1.58;;
56183;SDS011;42086;53.170;6.980;2022-09-09T14:54:30;4.70;;;1.30;;
56183;SDS011;42086;53.170;6.980;2022-09-09T14:56:57;7.50;;;1.70;;
56183;SDS011;42086;53.170;6.980;2022-09-09T14:59:24;6.97;;;1.70;;
56183;SDS011;42086;53.170;6.980;2022-09-09T15:01:50;3.45;;;1.65;;
56183;SDS011;42086;53.170;6.980;2022-09-09T15:04:16;7.28;;;1.80;;
56183;SDS011;42086;53.170;6.980;2022-09-09T15:06:42;6.35;;;2.03;;
56183;SDS011;42086;53.170;6.980;2022-09-09T15:09:12;3.28;;;1.80;;
56183;SDS011;42086;53.170;6.980;2022-09-09T15:11:38;4.78;;;1.85;;
56183;SDS011;42086;53.170;6.980;2022-09-09T15:14:04;5.25;;;2.10;;
56183;SDS011;42086;53.170;6.980;2022-09-09T15:16:31;3.50;;;2.42;;
56183;SDS011;42086;53.170;6.980;2022-09-09T15:18:58;3.90;;;2.15;;
56183;SDS011;42086;53.170;6.980;2022-09-09T15:21:26;10.57;;;2.40;;
56183;SDS011;42086;53.170;6.980;2022-09-09T15:23:57;7.32;;;2.08;;
56183;SDS011;42086;53.170;6.980;2022-09-09T15:26:24;6.32;;;1.60;;
56183;SDS011;42086;53.170;6.980;2022-09-09T15:28:51;5.05;;;1.23;;
56183;SDS011;42086;53.170;6.980;2022-09-09T15:31:23;3.95;;;1.30;;
56183;SDS011;42086;53.170;6.980;2022-09-09T15:33:52;3.47;;;1.35;;
56183;SDS011;42086;53.170;6.980;2022-09-09T15:36:25;2.92;;;1.00;;
56183;SDS011;42086;53.170;6.980;2022-09-09T15:38:54;3.63;;;1.25;;
56183;SDS011;42086;53.170;6.980;2022-09-09T15:41:20;4.28;;;1.27;;
56183;SDS011;42086;53.170;6.980;2022-09-09T15:43:48;1.80;;;1.00;;
56183;SDS011;42086;53.170;6.980;2022-09-09T15:48:54;1.83;;;0.80;;
56183;SDS011;42086;53.170;6.980;2022-09-09T15:51:22;1.77;;;0.50;;
56183;SDS011;42086;53.170;6.980;2022-09-09T15:53:56;1.58;;;0.60;;
56183;SDS011;42086;53.170;6.980;2022-09-09T15:56:24;2.10;;;0.50;;
56183;SDS011;42086;53.170;6.980;2022-09-09T15:58:51;0.95;;;0.45;;
56183;SDS011;42086;53.170;6.980;2022-09-09T16:01:18;0.85;;;0.57;;
56183;SDS011;42086;53.170;6.980;2022-09-09T16:03:44;0.70;;;0.50;;
56183;SDS011;42086;53.170;6.980;2022-09-09T16:06:12;0.70;;;0.30;;
56183;SDS011;42086;53.170;6.980;2022-09-09T16:08:39;2.15;;;0.52;;
56183;SDS011;42086;53.170;6.980;2022-09-09T16:11:11;1.80;;;0.55;;
56183;SDS011;42086;53.170;6.980;2022-09-09T16:13:40;1.10;;;0.65;;
56183;SDS011;42086;53.170;6.980;2022-09-09T16:16:07;2.03;;;0.60;;
56183;SDS011;42086;53.170;6.980;2022-09-09T16:21:02;1.63;;;0.70;;
56183;SDS011;42086;53.170;6.980;2022-09-09T16:23:30;0.70;;;0.70;;
56183;SDS011;42086;53.170;6.980;2022-09-09T16:26:00;1.88;;;0.75;;
56183;SDS011;42086;53.170;6.980;2022-09-09T16:28:26;2.85;;;0.88;;
56183;SDS011;42086;53.170;6.980;2022-09-09T16:30:53;1.40;;;0.77;;
56183;SDS011;42086;53.170;6.980;2022-09-09T16:33:19;1.52;;;0.82;;
56183;SDS011;42086;53.170;6.980;2022-09-09T16:35:44;1.52;;;1.00;;
56183;SDS011;42086;53.170;6.980;2022-09-09T16:38:10;2.63;;;1.08;;
56183;SDS011;42086;53.170;6.980;2022-09-09T16:40:37;1.40;;;0.93;;
56183;SDS011;42086;53.170;6.980;2022-09-09T16:43:05;2.85;;;1.30;;
56183;SDS011;42086;53.170;6.980;2022-09-09T16:45:31;2.15;;;1.20;;
56183;SDS011;42086;53.170;6.980;2022-09-09T16:47:58;2.13;;;1.30;;
56183;SDS011;42086;53.170;6.980;2022-09-09T16:50:25;2.10;;;1.27;;
56183;SDS011;42086;53.170;6.980;2022-09-09T16:52:52;2.30;;;1.13;;
56183;SDS011;42086;53.170;6.980;2022-09-09T16:55:18;2.80;;;1.30;;
56183;SDS011;42086;53.170;6.980;2022-09-09T16:57:46;2.55;;;1.23;;
56183;SDS011;42086;53.170;6.980;2022-09-09T17:00:14;2.63;;;1.20;;
56183;SDS011;42086;53.170;6.980;2022-09-09T17:02:43;3.00;;;1.20;;
56183;SDS011;42086;53.170;6.980;2022-09-09T17:05:10;3.05;;;1.10;;
56183;SDS011;42086;53.170;6.980;2022-09-09T17:07:37;4.68;;;1.45;;
56183;SDS011;42086;53.170;6.980;2022-09-09T17:10:04;2.30;;;1.40;;
56183;SDS011;42086;53.170;6.980;2022-09-09T17:12:31;2.88;;;1.35;;
56183;SDS011;42086;53.170;6.980;2022-09-09T17:14:57;2.22;;;1.25;;
56183;SDS011;42086;53.170;6.980;2022-09-09T17:17:25;2.90;;;1.60;;
56183;SDS011;42086;53.170;6.980;2022-09-09T17:19:51;5.03;;;1.40;;
56183;SDS011;42086;53.170;6.980;2022-09-09T17:22:18;3.22;;;1.50;;
56183;SDS011;42086;53.170;6.980;2022-09-09T17:24:45;2.97;;;1.60;;